createdAt,value
2018-10-16T00:02:14.189Z,97966.70
2018-10-16T00:04:42.098Z,97968.94
2018-10-16T00:07:10.978Z,97964.20
2018-10-16T00:12:12.414Z,97958.14
2018-10-16T00:14:41.424Z,97963.05
2018-10-16T00:17:10.516Z,97956.14
2018-10-16T00:19:37.785Z,97958.48
2018-10-16T00:22:06.113Z,97960.65
2018-10-16T00:24:34.181Z,97961.49
2018-10-16T00:27:02.217Z,97965.80
2018-10-16T00:29:29.575Z,97960.48
2018-10-16T00:31:56.814Z,97956.31
2018-10-16T00:34:23.448Z,97945.12
2018-10-16T00:36:51.125Z,97954.80
2018-10-16T00:39:18.049Z,97953.23
2018-10-16T00:41:44.693Z,97951.41
2018-10-16T00:44:11.350Z,97944.90
2018-10-16T00:46:38.111Z,97944.63
2018-10-16T00:49:04.763Z,97940.33
2018-10-16T00:51:31.473Z,97935.00
2018-10-16T00:53:58.078Z,97944.71
2018-10-16T00:56:25.582Z,97944.38
2018-10-16T00:58:52.247Z,97944.54
2018-10-16T01:01:18.897Z,97949.20
2018-10-16T01:03:45.667Z,97944.59
2018-10-16T01:06:12.425Z,97940.90
2018-10-16T01:08:39.075Z,97924.77
2018-10-16T01:11:06.767Z,97924.77
2018-10-16T01:13:33.450Z,97924.02
2018-10-16T01:16:00.080Z,97929.47
2018-10-16T01:18:26.793Z,97930.05
2018-10-16T01:23:25.266Z,97929.97
2018-10-16T01:25:51.940Z,97925.00
2018-10-16T01:28:18.745Z,97928.72
2018-10-16T01:30:46.126Z,97926.01
2018-10-16T01:33:12.683Z,97928.81
2018-10-16T01:35:39.379Z,97929.64
2018-10-16T01:38:05.886Z,97919.30
2018-10-16T01:40:32.383Z,97919.66
2018-10-16T01:42:58.864Z,97919.31
2018-10-16T01:45:25.384Z,97905.11
2018-10-16T01:47:51.876Z,97909.01
2018-10-16T01:50:18.316Z,97909.94
2018-10-16T01:55:18.310Z,97911.61
2018-10-16T01:57:44.772Z,97915.40
2018-10-16T02:00:11.332Z,97918.06
2018-10-16T02:02:37.857Z,97920.98
2018-10-16T02:05:04.739Z,97914.02
2018-10-16T02:07:31.224Z,97908.61
2018-10-16T02:09:57.793Z,97914.89
2018-10-16T02:12:24.296Z,97915.45
2018-10-16T02:14:50.993Z,97906.68
2018-10-16T02:17:17.567Z,97913.72
2018-10-16T02:19:44.067Z,97916.55
2018-10-16T02:22:11.438Z,97909.95
2018-10-16T02:24:39.257Z,97912.66
2018-10-16T02:27:06.400Z,97901.59
2018-10-16T02:29:32.960Z,97893.88
2018-10-16T02:31:59.659Z,97903.67
2018-10-16T02:34:26.238Z,97904.03
2018-10-16T02:36:53.059Z,97904.11
2018-10-16T02:41:51.909Z,97912.98
2018-10-16T02:44:18.516Z,97914.89
2018-10-16T02:46:45.110Z,97912.05
2018-10-16T02:49:11.752Z,97909.47
2018-10-16T02:51:38.311Z,97908.25
2018-10-16T02:54:04.839Z,97921.14
2018-10-16T02:56:31.332Z,97920.47
2018-10-16T02:58:57.942Z,97922.63
2018-10-16T03:01:24.491Z,97928.98
2018-10-16T03:03:51.161Z,97922.73
2018-10-16T03:06:17.924Z,97922.03
2018-10-16T03:08:44.402Z,97927.30
2018-10-16T03:11:11.954Z,97922.52
2018-10-16T03:13:38.494Z,97927.60
2018-10-16T03:16:04.974Z,97931.66
2018-10-16T03:23:36.234Z,97917.92
2018-10-16T03:26:02.999Z,97916.16
2018-10-16T03:28:29.694Z,97924.05
2018-10-16T03:30:57.579Z,97921.20
2018-10-16T03:33:25.151Z,97923.69
2018-10-16T03:35:53.813Z,97915.58
2018-10-16T03:38:22.270Z,97922.37
2018-10-16T03:40:50.548Z,97918.13
2018-10-16T03:43:17.710Z,97921.61
2018-10-16T03:45:46.292Z,97922.11
2018-10-16T03:48:13.775Z,97919.06
2018-10-16T03:50:41.178Z,97916.16
2018-10-16T03:53:08.403Z,97918.41
2018-10-16T03:55:35.821Z,97922.04
2018-10-16T03:58:04.804Z,97918.47
2018-10-16T04:00:35.590Z,97917.47
2018-10-16T04:03:04.504Z,97916.97
2018-10-16T04:05:32.215Z,97920.68
2018-10-16T04:08:01.509Z,97911.63
2018-10-16T04:10:29.298Z,97917.78
2018-10-16T04:12:55.848Z,97910.07
2018-10-16T04:15:23.795Z,97911.38
2018-10-16T04:17:50.749Z,97911.25
2018-10-16T04:20:17.600Z,97913.34
2018-10-16T04:22:44.834Z,97904.16
2018-10-16T04:25:15.054Z,97902.94
2018-10-16T04:27:44.172Z,97903.28
2018-10-16T04:30:13.811Z,97894.55
2018-10-16T04:32:40.355Z,97897.05
2018-10-16T04:35:09.358Z,97887.36
2018-10-16T04:37:36.149Z,97894.09
2018-10-16T04:40:03.257Z,97898.23
2018-10-16T04:42:30.469Z,97907.30
2018-10-16T04:44:59.000Z,97911.36
2018-10-16T04:47:26.611Z,97907.45
2018-10-16T04:49:54.045Z,97909.22
2018-10-16T04:52:20.624Z,97909.12
2018-10-16T04:54:47.803Z,97912.42
2018-10-16T04:57:16.090Z,97908.05
2018-10-16T04:59:43.300Z,97909.91
2018-10-16T05:02:10.754Z,97910.27
2018-10-16T05:04:37.785Z,97895.56
2018-10-16T05:07:06.653Z,97908.92
2018-10-16T05:09:34.634Z,97911.06
2018-10-16T05:12:02.216Z,97920.64
2018-10-16T05:14:28.819Z,97916.50
2018-10-16T05:16:55.893Z,97918.94
2018-10-16T05:19:23.351Z,97916.81
2018-10-16T05:21:50.838Z,97927.63
2018-10-16T05:24:19.056Z,97921.70
2018-10-16T05:26:46.785Z,97918.82
2018-10-16T05:29:14.825Z,97922.58
2018-10-16T05:31:42.161Z,97921.69
2018-10-16T05:34:09.501Z,97926.98
2018-10-16T05:36:38.139Z,97935.87
2018-10-16T05:39:04.971Z,97932.90
2018-10-16T05:41:32.819Z,97925.20
2018-10-16T05:44:01.032Z,97933.70
2018-10-16T05:46:28.162Z,97926.69
2018-10-16T05:48:56.058Z,97927.08
2018-10-16T05:51:23.364Z,97925.86
2018-10-16T05:53:50.863Z,97921.85
2018-10-16T05:56:18.085Z,97931.42
2018-10-16T05:58:45.580Z,97934.55
2018-10-16T06:01:14.130Z,97936.48
2018-10-16T06:03:41.410Z,97937.89
2018-10-16T06:06:08.954Z,97942.60
2018-10-16T06:08:36.341Z,97942.25
2018-10-16T06:11:04.175Z,97939.55
2018-10-16T06:13:32.021Z,97946.70
2018-10-16T06:15:59.780Z,97949.65
2018-10-16T06:18:28.142Z,97951.80
2018-10-16T06:23:27.508Z,97954.40
2018-10-16T06:25:55.890Z,97950.58
2018-10-16T06:28:23.655Z,97954.00
2018-10-16T06:30:51.186Z,97955.89
2018-10-16T06:33:19.739Z,97957.17
2018-10-16T06:35:47.062Z,97958.24
2018-10-16T06:38:15.434Z,97962.59
2018-10-16T06:40:44.113Z,97961.69
2018-10-16T06:43:11.431Z,97957.98
2018-10-16T06:45:39.230Z,97970.75
2018-10-16T06:48:08.725Z,97976.91
2018-10-16T06:50:37.745Z,97977.05
2018-10-16T06:53:05.014Z,97975.91
2018-10-16T06:55:32.351Z,97981.45
2018-10-16T06:57:59.863Z,97980.13
2018-10-16T07:00:27.689Z,97983.08
2018-10-16T07:02:54.953Z,97992.06
2018-10-16T07:05:22.246Z,97995.81
2018-10-16T07:07:49.664Z,97993.64
2018-10-16T07:10:17.715Z,97991.55
2018-10-16T07:12:45.799Z,97993.21
2018-10-16T07:15:14.695Z,97990.61
2018-10-16T07:17:41.420Z,98002.33
2018-10-16T07:20:08.016Z,97999.91
2018-10-16T07:22:35.392Z,98000.45
2018-10-16T07:25:03.224Z,98004.69
2018-10-16T07:27:31.656Z,98012.27
2018-10-16T07:29:59.944Z,98009.49
2018-10-16T07:32:28.094Z,98010.68
2018-10-16T07:34:56.347Z,98009.97
2018-10-16T07:37:24.654Z,98010.14
2018-10-16T07:42:23.383Z,98005.31
2018-10-16T07:44:52.010Z,98008.54
2018-10-16T07:47:19.840Z,98001.73
2018-10-16T07:49:49.912Z,98008.94
2018-10-16T07:52:18.412Z,98007.50
2018-10-16T07:54:48.305Z,98008.42
2018-10-16T07:57:14.936Z,98006.80
2018-10-16T07:59:45.595Z,98004.66
2018-10-16T08:02:13.321Z,98005.37
2018-10-16T08:04:40.561Z,97997.37
2018-10-16T08:07:07.062Z,97997.44
2018-10-16T08:09:34.038Z,98000.50
2018-10-16T08:12:05.245Z,98004.27
2018-10-16T08:14:32.921Z,97996.67
2018-10-16T08:17:00.771Z,97998.19
2018-10-16T08:19:28.128Z,97993.73
2018-10-16T08:21:55.000Z,97995.30
2018-10-16T08:24:22.863Z,97993.92
2018-10-16T08:26:51.582Z,97989.41
2018-10-16T08:29:21.564Z,97985.59
2018-10-16T08:31:51.076Z,97987.05
2018-10-16T08:34:18.373Z,97980.55
2018-10-16T08:36:45.436Z,97978.27
2018-10-16T08:39:12.424Z,97968.95
2018-10-16T08:41:39.766Z,97974.48
2018-10-16T08:44:08.350Z,97971.28
2018-10-16T08:46:37.045Z,97973.66
2018-10-16T08:49:03.831Z,97967.41
2018-10-16T08:51:30.314Z,97971.08
2018-10-16T08:53:57.047Z,97966.67
2018-10-16T08:56:24.535Z,97968.38
2018-10-16T08:58:53.136Z,97969.22
2018-10-16T09:01:20.924Z,97969.12
2018-10-16T09:03:49.542Z,97964.05
2018-10-16T09:06:17.370Z,97967.55
2018-10-16T09:08:45.864Z,97962.45
2018-10-16T09:11:13.196Z,97967.09
2018-10-16T09:13:40.305Z,97967.53
2018-10-16T09:16:11.140Z,97974.22
2018-10-16T09:18:40.361Z,97972.44
2018-10-16T09:21:08.155Z,97978.91
2018-10-16T09:23:35.366Z,97979.78
2018-10-16T09:26:04.811Z,97974.13
2018-10-16T09:28:32.570Z,97976.56
2018-10-16T09:31:03.682Z,97969.31
2018-10-16T09:33:31.856Z,97967.97
2018-10-16T09:35:59.749Z,97968.84
2018-10-16T09:38:29.495Z,97965.72
2018-10-16T09:40:57.556Z,97964.50
2018-10-16T09:43:25.085Z,97966.93
2018-10-16T09:45:51.831Z,97963.17
2018-10-16T09:48:19.090Z,97966.33
2018-10-16T09:50:46.510Z,97966.02
2018-10-16T09:53:13.925Z,97965.75
2018-10-16T09:55:42.801Z,97969.02
2018-10-16T09:58:09.628Z,97960.86
2018-10-16T10:00:37.803Z,97962.41
2018-10-16T10:03:04.279Z,97960.49
2018-10-16T10:05:31.087Z,97958.36
2018-10-16T10:07:59.667Z,97956.55
2018-10-16T10:10:29.044Z,97953.42
2018-10-16T10:12:57.747Z,97958.97
2018-10-16T10:15:25.787Z,97955.99
2018-10-16T10:17:54.103Z,97958.80
2018-10-16T10:20:22.090Z,97963.25
2018-10-16T10:22:49.804Z,97954.71
2018-10-16T10:25:17.855Z,97955.14
2018-10-16T10:27:46.349Z,97952.78
2018-10-16T10:30:13.621Z,97954.09
2018-10-16T10:32:40.195Z,97947.98
2018-10-16T10:35:07.927Z,97950.33
2018-10-16T10:37:39.706Z,97945.78
2018-10-16T10:40:07.885Z,97944.13
2018-10-16T10:42:35.504Z,97942.30
2018-10-16T10:45:03.842Z,97943.50
2018-10-16T10:47:32.538Z,97935.09
2018-10-16T10:50:00.900Z,97936.13
2018-10-16T10:52:28.588Z,97943.36
2018-10-16T10:54:56.673Z,97941.53
2018-10-16T10:57:25.882Z,97943.77
2018-10-16T10:59:53.186Z,97940.91
2018-10-16T11:02:20.802Z,97939.62
2018-10-16T11:04:49.239Z,97937.92
2018-10-16T11:07:16.781Z,97935.37
2018-10-16T11:09:43.260Z,97935.91
2018-10-16T11:12:10.509Z,97937.14
2018-10-16T11:14:37.844Z,97936.73
2018-10-16T11:17:06.034Z,97933.38
2018-10-16T11:19:32.595Z,97926.95
2018-10-16T11:22:00.112Z,97925.66
2018-10-16T11:24:27.770Z,97921.73
2018-10-16T11:26:58.222Z,97918.66
2018-10-16T11:29:24.769Z,97916.19
2018-10-16T11:31:53.137Z,97908.61
2018-10-16T11:34:20.666Z,97908.19
2018-10-16T11:36:51.169Z,97906.64
2018-10-16T11:41:51.028Z,97901.61
2018-10-16T11:44:19.624Z,97900.14
2018-10-16T11:46:46.386Z,97901.50
2018-10-16T11:49:13.875Z,97904.58
2018-10-16T11:51:41.170Z,97903.99
2018-10-16T11:56:40.324Z,97901.55
2018-10-16T11:59:07.261Z,97898.39
2018-10-16T12:04:07.479Z,97899.70
2018-10-16T12:06:34.873Z,97898.70
2018-10-16T12:09:02.709Z,97897.87
2018-10-16T12:11:30.572Z,97896.89
2018-10-16T12:13:57.808Z,97887.33
2018-10-16T12:16:27.256Z,97894.38
2018-10-16T12:18:55.809Z,97892.45
2018-10-16T12:21:24.205Z,97899.17
2018-10-16T12:23:51.298Z,97895.69
2018-10-16T12:26:18.476Z,97890.58
2018-10-16T12:28:46.919Z,97894.34
2018-10-16T12:31:13.591Z,97892.58
2018-10-16T12:33:40.356Z,97893.41
2018-10-16T12:36:08.923Z,97889.48
2018-10-16T12:38:40.625Z,97890.26
2018-10-16T12:43:41.625Z,97882.78
2018-10-16T12:46:10.149Z,97881.80
2018-10-16T12:48:37.415Z,97881.11
2018-10-16T12:51:05.843Z,97880.26
2018-10-16T12:53:34.284Z,97876.43
2018-10-16T12:56:01.507Z,97876.34
2018-10-16T12:58:29.472Z,97882.33
2018-10-16T13:03:30.462Z,97882.42
2018-10-16T13:05:57.816Z,97886.00
2018-10-16T13:08:25.967Z,97892.13
2018-10-16T13:10:53.764Z,97888.62
2018-10-16T13:13:22.319Z,97893.67
2018-10-16T13:15:51.092Z,97895.52
2018-10-16T13:20:50.667Z,97898.47
2018-10-16T13:23:19.479Z,97900.46
2018-10-16T13:25:47.893Z,97898.95
2018-10-16T13:28:15.191Z,97892.66
2018-10-16T13:30:44.204Z,97888.11
2018-10-16T13:33:11.293Z,97894.95
2018-10-16T13:35:38.099Z,97891.05
2018-10-16T13:38:06.539Z,97888.92
2018-10-16T13:40:35.325Z,97892.50
2018-10-16T13:43:02.895Z,97891.17
2018-10-16T13:45:30.661Z,97888.00
2018-10-16T13:47:57.531Z,97898.09
2018-10-16T13:50:26.791Z,97898.05
2018-10-16T13:52:55.985Z,97900.19
2018-10-16T13:55:24.857Z,97896.30
2018-10-16T13:57:54.087Z,97897.14
2018-10-16T14:00:21.010Z,97901.08
2018-10-16T14:02:49.681Z,97900.14
2018-10-16T14:05:16.621Z,97899.53
2018-10-16T14:07:45.692Z,97904.69
2018-10-16T14:10:13.174Z,97903.29
2018-10-16T14:12:42.067Z,97910.17
2018-10-16T14:15:09.910Z,97907.20
2018-10-16T14:17:37.925Z,97904.95
2018-10-16T14:20:07.898Z,97903.52
2018-10-16T14:22:35.454Z,97899.34
2018-10-16T14:25:02.925Z,97902.23
2018-10-16T14:27:31.243Z,97903.02
2018-10-16T14:30:01.605Z,97895.07
2018-10-16T14:32:29.249Z,97897.09
2018-10-16T14:34:56.796Z,97890.43
2018-10-16T14:37:25.658Z,97897.83
2018-10-16T14:39:52.854Z,97904.21
2018-10-16T14:42:19.872Z,97897.98
2018-10-16T14:47:19.524Z,97908.32
2018-10-16T14:49:46.858Z,97901.95
2018-10-16T14:52:17.541Z,97893.77
2018-10-16T14:54:45.482Z,97902.48
2018-10-16T14:57:12.290Z,97901.15
2018-10-16T14:59:41.407Z,97895.09
2018-10-16T15:02:08.208Z,97896.63
2018-10-16T15:04:36.712Z,97895.77
2018-10-16T15:07:05.179Z,97890.45
2018-10-16T15:09:33.731Z,97889.15
2018-10-16T15:12:02.130Z,97892.67
2018-10-16T15:14:31.359Z,97893.03
2018-10-16T15:16:59.581Z,97896.59
2018-10-16T15:19:29.258Z,97897.03
2018-10-16T15:21:57.549Z,97900.19
2018-10-16T15:24:25.243Z,97896.95
2018-10-16T15:26:53.670Z,97894.12
2018-10-16T15:29:21.843Z,97904.08
2018-10-16T15:31:50.584Z,97899.28
2018-10-16T15:34:19.654Z,97898.61
2018-10-16T15:36:47.482Z,97898.37
2018-10-16T15:39:14.568Z,97902.06
2018-10-16T15:41:42.307Z,97907.33
2018-10-16T15:44:11.580Z,97904.63
2018-10-16T15:46:41.426Z,97902.63
2018-10-16T15:49:14.011Z,97912.84
2018-10-16T15:51:42.388Z,97918.40
2018-10-16T15:54:11.625Z,97928.86
2018-10-16T15:56:39.536Z,97923.73
2018-10-16T16:01:56.003Z,97930.48
2018-10-16T16:06:56.786Z,97935.55
2018-10-16T16:11:57.232Z,97942.98
2018-10-16T16:14:25.131Z,97935.02
2018-10-16T16:16:53.607Z,97938.64
2018-10-16T16:21:56.256Z,97938.98
2018-10-16T16:24:23.948Z,97943.06
2018-10-16T16:26:51.983Z,97948.87
2018-10-16T16:29:21.284Z,97942.30
2018-10-16T16:31:49.069Z,97949.11
2018-10-16T16:34:17.502Z,97948.21
2018-10-16T16:39:19.032Z,97950.80
2018-10-16T16:41:46.776Z,97946.27
2018-10-16T16:44:13.624Z,97949.34
2018-10-16T16:46:41.275Z,97950.37
2018-10-16T16:51:43.108Z,97960.37
2018-10-16T16:54:11.051Z,97966.63
2018-10-16T16:56:39.049Z,97963.02
2018-10-16T16:59:08.110Z,97958.50
2018-10-16T17:01:37.172Z,97965.79
2018-10-16T17:04:04.703Z,97963.09
2018-10-16T17:09:06.938Z,97965.09
2018-10-16T17:11:35.075Z,97970.06
2018-10-16T17:14:01.925Z,97972.34
2018-10-16T17:21:33.725Z,97971.06
2018-10-16T17:24:00.526Z,97976.32
2018-10-16T17:26:28.202Z,97972.89
2018-10-16T17:28:56.837Z,97971.44
2018-10-16T17:31:25.309Z,97969.81
2018-10-16T17:33:52.469Z,97973.16
2018-10-16T17:36:20.640Z,97977.33
2018-10-16T17:38:48.471Z,97981.44
2018-10-16T17:41:16.671Z,97976.84
2018-10-16T17:43:44.541Z,97991.50
2018-10-16T17:46:12.817Z,97988.14
2018-10-16T17:48:40.262Z,97990.42
2018-10-16T17:51:11.499Z,97987.49
2018-10-16T17:53:40.042Z,97984.77
2018-10-16T17:56:07.444Z,97986.61
2018-10-16T17:58:35.593Z,97991.41
2018-10-16T18:01:03.561Z,97988.35
2018-10-16T18:03:31.472Z,97975.79
2018-10-16T18:05:59.180Z,97987.23
2018-10-16T18:08:27.034Z,98003.73
2018-10-16T18:10:55.052Z,98010.45
2018-10-16T18:13:22.986Z,98014.23
2018-10-16T18:15:50.989Z,98006.08
2018-10-16T18:18:19.598Z,98001.39
2018-10-16T18:20:46.851Z,97990.17
2018-10-16T18:23:15.701Z,97994.03
2018-10-16T18:25:44.594Z,97993.34
2018-10-16T18:28:12.485Z,98000.04
2018-10-16T18:30:39.616Z,97997.47
2018-10-16T18:33:07.861Z,98005.34
2018-10-16T18:35:36.967Z,98007.91
2018-10-16T18:38:04.339Z,98008.42
2018-10-16T18:43:03.598Z,98006.02
2018-10-16T18:45:31.328Z,98014.19
2018-10-16T18:47:59.326Z,98015.84
2018-10-16T18:50:27.664Z,98014.57
2018-10-16T18:52:55.637Z,98010.73
2018-10-16T18:55:22.337Z,98010.03
2018-10-16T18:57:50.091Z,98005.55
2018-10-16T19:00:17.647Z,98008.62
2018-10-16T19:02:45.299Z,98010.38
2018-10-16T19:10:16.951Z,98016.23
2018-10-16T19:12:45.504Z,98014.39
2018-10-16T19:15:12.517Z,98018.87
2018-10-16T19:17:39.902Z,98023.98
2018-10-16T19:20:07.113Z,98019.03
2018-10-16T19:22:37.592Z,98016.37
2018-10-16T19:25:05.685Z,98015.55
2018-10-16T19:27:33.218Z,98011.73
2018-10-16T19:30:02.014Z,98013.91
2018-10-16T19:32:31.433Z,98010.03
2018-10-16T19:34:58.546Z,98013.52
2018-10-16T19:37:26.691Z,98021.99
2018-10-16T19:42:26.476Z,98024.41
2018-10-16T19:44:55.089Z,98025.83
2018-10-16T19:47:22.570Z,98023.77
2018-10-16T19:49:50.065Z,98022.95
2018-10-16T19:52:18.136Z,98025.66
2018-10-16T19:54:45.880Z,98021.81
2018-10-16T19:57:13.441Z,98022.92
2018-10-16T19:59:40.238Z,98016.30
2018-10-16T20:02:08.864Z,98021.05
2018-10-16T20:04:35.761Z,98022.20
2018-10-16T20:07:04.444Z,98023.39
2018-10-16T20:09:31.944Z,98021.86
2018-10-16T20:12:00.284Z,98024.20
2018-10-16T20:14:28.424Z,98022.19
2018-10-16T20:16:56.018Z,98025.40
2018-10-16T20:19:23.267Z,98024.80
2018-10-16T20:21:51.656Z,98023.66
2018-10-16T20:24:20.468Z,98023.59
2018-10-16T20:26:50.673Z,98027.30
2018-10-16T20:29:18.336Z,98022.52
2018-10-16T20:31:45.064Z,98027.23
2018-10-16T20:34:12.312Z,98025.98
2018-10-16T20:36:39.832Z,98031.53
2018-10-16T20:39:09.575Z,98028.45
2018-10-16T20:41:36.106Z,98025.66
2018-10-16T20:44:02.998Z,98017.30
2018-10-16T20:46:31.479Z,98012.97
2018-10-16T20:48:59.489Z,98015.18
2018-10-16T20:51:26.914Z,98013.94
2018-10-16T20:53:55.068Z,98008.84
2018-10-16T20:56:22.474Z,98017.05
2018-10-16T20:58:49.901Z,98011.72
2018-10-16T21:01:19.062Z,98007.48
2018-10-16T21:03:46.955Z,98002.76
2018-10-16T21:06:15.179Z,98001.88
2018-10-16T21:08:42.084Z,98002.31
2018-10-16T21:11:10.680Z,98001.94
2018-10-16T21:13:39.012Z,97996.94
2018-10-16T21:16:06.297Z,97993.97
2018-10-16T21:18:33.810Z,97990.64
2018-10-16T21:21:01.489Z,97991.97
2018-10-16T21:23:28.439Z,97990.78
2018-10-16T21:25:55.551Z,97994.67
2018-10-16T21:28:23.321Z,97992.73
2018-10-16T21:30:51.718Z,97996.67
2018-10-16T21:33:19.806Z,97993.44
2018-10-16T21:35:46.666Z,97992.84
2018-10-16T21:38:14.111Z,97989.16
2018-10-16T21:40:40.963Z,97989.30
2018-10-16T21:43:07.790Z,97987.77
2018-10-16T21:45:34.416Z,97987.33
2018-10-16T21:48:01.952Z,97978.88
2018-10-16T21:50:28.714Z,97982.25
2018-10-16T21:52:56.050Z,97980.56
2018-10-16T21:55:23.540Z,97982.55
2018-10-16T21:57:52.581Z,97979.20
2018-10-16T22:00:21.188Z,97979.82
2018-10-16T22:02:48.313Z,97978.40
2018-10-16T22:05:16.787Z,97977.68
2018-10-16T22:07:45.427Z,97982.02
2018-10-16T22:10:13.937Z,97978.20
2018-10-16T22:12:41.874Z,97977.66
2018-10-16T22:15:09.938Z,97975.94
2018-10-16T22:17:37.920Z,97973.36
2018-10-16T22:20:05.504Z,97961.86
2018-10-16T22:22:35.659Z,97968.42
2018-10-16T22:25:04.189Z,97972.95
2018-10-16T22:27:31.784Z,97969.27
2018-10-16T22:30:00.236Z,97964.46
2018-10-16T22:35:00.191Z,97969.86
2018-10-16T22:37:27.562Z,97974.10
2018-10-16T22:39:55.616Z,97975.59
2018-10-16T22:42:22.840Z,97972.98
2018-10-16T22:44:49.719Z,97980.67
2018-10-16T22:47:17.463Z,97972.45
2018-10-16T22:49:46.220Z,97975.80
2018-10-16T22:52:15.556Z,97974.20
2018-10-16T22:54:43.447Z,97977.08
2018-10-16T22:57:11.821Z,97977.41
2018-10-16T22:59:39.272Z,97970.31
2018-10-16T23:02:06.011Z,97976.55
2018-10-16T23:04:32.901Z,97968.27
2018-10-16T23:07:00.033Z,97973.54
2018-10-16T23:09:26.999Z,97972.30
2018-10-16T23:11:54.978Z,97971.58
2018-10-16T23:14:21.819Z,97972.53
2018-10-16T23:16:49.602Z,97970.22
2018-10-16T23:19:17.060Z,97970.45
2018-10-16T23:21:46.320Z,97969.51
2018-10-16T23:24:13.014Z,97970.66
2018-10-16T23:26:40.710Z,97967.53
2018-10-16T23:29:09.503Z,97969.36
2018-10-16T23:31:37.989Z,97972.03
2018-10-16T23:34:04.719Z,97969.64
2018-10-16T23:36:32.986Z,97964.30
2018-10-16T23:39:00.490Z,97964.33
2018-10-16T23:41:27.646Z,97967.11
2018-10-16T23:43:56.308Z,97958.62
2018-10-16T23:46:24.625Z,97961.62
2018-10-16T23:48:53.394Z,97962.27
2018-10-16T23:53:53.608Z,97967.81
2018-10-16T23:56:21.119Z,97965.91
2018-10-16T23:58:49.863Z,97964.13
